createdAt,value
2017-09-13T00:01:54.674Z,98.20
2017-09-13T00:04:22.121Z,98.20
2017-09-13T00:06:49.587Z,98.20
2017-09-13T00:09:17.029Z,98.20
2017-09-13T00:11:44.478Z,98.20
2017-09-13T00:14:11.961Z,98.20
2017-09-13T00:16:39.406Z,98.20
2017-09-13T00:19:06.849Z,98.20
2017-09-13T00:21:34.330Z,98.20
2017-09-13T00:24:01.778Z,98.20
2017-09-13T00:26:29.225Z,98.20
2017-09-13T00:28:56.717Z,98.20
2017-09-13T00:31:24.557Z,98.20
2017-09-13T00:33:52.017Z,98.20
2017-09-13T00:36:19.482Z,98.20
2017-09-13T00:38:47.326Z,98.20
2017-09-13T00:41:14.770Z,98.20
2017-09-13T00:43:42.242Z,98.20
2017-09-13T00:46:09.694Z,98.20
2017-09-13T00:48:37.137Z,98.20
2017-09-13T00:51:04.898Z,98.20
2017-09-13T00:53:32.341Z,98.20
2017-09-13T00:55:59.786Z,98.20
2017-09-13T00:58:27.268Z,98.20
2017-09-13T01:00:54.714Z,98.20
2017-09-13T01:03:22.310Z,98.20
2017-09-13T01:05:50.154Z,98.20
2017-09-13T01:08:17.602Z,98.20
2017-09-13T01:10:45.086Z,98.20
2017-09-13T01:13:12.924Z,98.20
2017-09-13T01:15:40.374Z,98.20
2017-09-13T01:18:07.970Z,98.20
2017-09-13T01:20:35.810Z,98.20
2017-09-13T01:23:03.258Z,98.20
2017-09-13T01:25:30.741Z,98.20
2017-09-13T01:27:58.569Z,98.20
2017-09-13T01:30:26.018Z,98.20
2017-09-13T01:32:53.497Z,98.20
2017-09-13T01:35:20.946Z,98.20
2017-09-13T01:37:48.395Z,98.20
2017-09-13T01:40:15.870Z,98.20
2017-09-13T01:42:43.713Z,98.20
2017-09-13T01:45:11.170Z,98.20
2017-09-13T01:47:38.626Z,98.20
2017-09-13T01:50:06.086Z,98.20
2017-09-13T01:52:33.726Z,98.20
2017-09-13T01:55:01.175Z,98.20
2017-09-13T01:57:28.622Z,98.20
2017-09-13T01:59:56.403Z,98.20
2017-09-13T02:02:23.845Z,98.20
2017-09-13T02:04:51.307Z,98.20
2017-09-13T02:07:18.779Z,98.20
2017-09-13T02:09:46.222Z,98.20
2017-09-13T02:12:13.673Z,98.20
2017-09-13T02:14:41.541Z,98.20
2017-09-13T02:17:08.985Z,98.20
2017-09-13T02:19:36.436Z,98.20
2017-09-13T02:22:03.999Z,98.20
2017-09-13T02:24:31.454Z,98.20
2017-09-13T02:26:58.909Z,98.20
2017-09-13T02:29:26.390Z,98.20
2017-09-13T02:31:53.838Z,98.20
2017-09-13T02:34:21.290Z,98.20
2017-09-13T02:36:48.742Z,98.20
2017-09-13T02:39:16.198Z,98.20
2017-09-13T02:41:43.687Z,98.20
2017-09-13T02:44:11.530Z,98.20
2017-09-13T02:46:38.982Z,98.20
2017-09-13T02:49:06.730Z,98.20
2017-09-13T02:51:34.186Z,98.20
2017-09-13T02:54:01.651Z,98.20
2017-09-13T02:56:29.162Z,98.20
2017-09-13T02:58:56.628Z,98.20
2017-09-13T03:01:24.090Z,98.20
2017-09-13T03:03:51.594Z,98.20
2017-09-13T03:06:19.683Z,98.20
2017-09-13T03:08:47.144Z,98.20
2017-09-13T03:11:14.858Z,98.20
2017-09-13T03:13:42.322Z,98.20
2017-09-13T03:16:09.779Z,98.20
2017-09-13T03:18:37.271Z,98.20
2017-09-13T03:21:04.727Z,98.20
2017-09-13T03:23:32.200Z,98.20
2017-09-13T03:25:59.781Z,98.20
2017-09-13T03:28:27.336Z,98.20
2017-09-13T03:30:54.788Z,98.20
2017-09-13T03:33:22.234Z,98.20
2017-09-13T03:35:49.723Z,98.20
2017-09-13T03:38:17.180Z,98.20
2017-09-13T03:40:44.643Z,98.20
2017-09-13T03:43:12.130Z,98.20
2017-09-13T03:45:39.590Z,98.20
2017-09-13T03:48:07.050Z,98.20
2017-09-13T03:50:34.512Z,98.20
2017-09-13T03:53:02.015Z,98.20
2017-09-13T03:55:29.475Z,98.20
2017-09-13T03:57:56.936Z,98.20
2017-09-13T04:00:24.911Z,98.20
2017-09-13T04:02:52.763Z,98.20
2017-09-13T04:05:20.621Z,98.20
2017-09-13T04:07:48.235Z,98.20
2017-09-13T04:10:15.690Z,98.20
2017-09-13T04:12:43.146Z,98.20
2017-09-13T04:15:10.876Z,98.20
2017-09-13T04:17:38.723Z,98.20
2017-09-13T04:20:06.191Z,98.20
2017-09-13T04:22:34.052Z,98.20
2017-09-13T04:25:01.914Z,98.20
2017-09-13T04:27:29.822Z,98.20
2017-09-13T04:29:57.275Z,98.20
2017-09-13T04:32:24.743Z,98.20
2017-09-13T04:34:52.370Z,98.20
2017-09-13T04:37:19.827Z,98.20
2017-09-13T04:39:47.396Z,98.20
2017-09-13T04:42:15.100Z,98.20
2017-09-13T04:44:42.557Z,98.20
2017-09-13T04:47:10.006Z,98.20
2017-09-13T04:49:37.780Z,98.20
2017-09-13T04:52:06.039Z,98.20
2017-09-13T04:54:33.499Z,98.20
2017-09-13T04:57:01.168Z,98.20
2017-09-13T04:59:28.623Z,98.20
2017-09-13T05:01:56.079Z,98.20
2017-09-13T05:04:23.732Z,98.20
2017-09-13T05:06:51.191Z,98.20
2017-09-13T05:09:18.646Z,98.20
2017-09-13T05:11:46.568Z,98.20
2017-09-13T05:14:14.027Z,98.20
2017-09-13T05:16:41.477Z,98.20
2017-09-13T05:19:08.936Z,98.20
2017-09-13T05:21:36.403Z,98.20
2017-09-13T05:24:03.863Z,98.20
2017-09-13T05:26:31.350Z,98.20
2017-09-13T05:28:58.802Z,98.20
2017-09-13T05:31:26.264Z,98.20
2017-09-13T05:33:53.748Z,98.20
2017-09-13T05:36:21.200Z,98.20
2017-09-13T05:38:48.654Z,98.20
2017-09-13T05:41:16.126Z,98.20
2017-09-13T05:43:43.581Z,98.20
2017-09-13T05:46:11.037Z,98.20
2017-09-13T05:48:38.488Z,98.20
2017-09-13T05:51:05.975Z,98.20
2017-09-13T05:53:33.534Z,98.20
2017-09-13T05:56:00.992Z,98.20
2017-09-13T05:58:28.454Z,98.20
2017-09-13T06:00:56.343Z,98.20
2017-09-13T06:03:24.206Z,98.20
2017-09-13T06:05:52.870Z,98.20
2017-09-13T06:08:20.331Z,98.20
2017-09-13T06:10:49.319Z,98.20
2017-09-13T06:13:17.079Z,98.20
2017-09-13T06:15:44.552Z,98.20
2017-09-13T06:18:12.027Z,98.20
2017-09-13T06:20:39.934Z,98.20
2017-09-13T06:23:07.383Z,98.20
2017-09-13T06:25:34.836Z,98.20
2017-09-13T06:28:02.307Z,98.20
2017-09-13T06:30:29.758Z,98.20
2017-09-13T06:32:57.214Z,98.20
2017-09-13T06:35:24.671Z,98.20
2017-09-13T06:37:52.126Z,98.20
2017-09-13T06:40:19.803Z,98.20
2017-09-13T06:42:47.259Z,98.20
2017-09-13T06:45:14.714Z,98.20
2017-09-13T06:47:42.324Z,98.20
2017-09-13T06:50:09.778Z,98.20
2017-09-13T06:52:37.245Z,98.20
2017-09-13T06:55:04.715Z,98.20
2017-09-13T06:57:32.252Z,98.20
2017-09-13T06:59:59.962Z,98.20
2017-09-13T07:02:27.419Z,98.20
2017-09-13T07:04:54.864Z,98.20
2017-09-13T07:07:22.341Z,98.20
2017-09-13T07:09:50.187Z,98.20
2017-09-13T07:12:17.644Z,98.20
2017-09-13T07:14:45.116Z,98.20
2017-09-13T07:17:12.960Z,98.20
2017-09-13T07:19:40.416Z,98.20
2017-09-13T07:22:08.070Z,98.20
2017-09-13T07:24:35.523Z,98.20
2017-09-13T07:27:02.971Z,98.20
2017-09-13T07:29:30.430Z,98.20
2017-09-13T07:31:57.928Z,98.20
2017-09-13T07:34:25.381Z,98.20
2017-09-13T07:36:53.226Z,98.20
2017-09-13T07:39:21.993Z,98.20
2017-09-13T07:41:49.448Z,98.20
2017-09-13T07:44:16.900Z,98.20
2017-09-13T07:46:44.371Z,98.20
2017-09-13T07:49:11.823Z,98.20
2017-09-13T07:51:39.275Z,98.20
2017-09-13T07:54:06.756Z,98.20
2017-09-13T07:56:34.610Z,98.20
2017-09-13T07:59:02.064Z,98.20
2017-09-13T08:01:30.228Z,98.20
2017-09-13T08:03:57.675Z,98.20
2017-09-13T08:06:25.136Z,98.20
2017-09-13T08:08:52.748Z,98.20
2017-09-13T08:11:20.198Z,98.20
2017-09-13T08:13:47.648Z,98.20
2017-09-13T08:16:15.096Z,98.20
2017-09-13T08:18:42.579Z,5.70
2017-09-13T08:21:10.028Z,16.30
2017-09-13T08:23:37.478Z,46.60
2017-09-13T08:26:05.234Z,30.80
2017-09-13T08:28:32.691Z,45.60
2017-09-13T08:31:00.136Z,50.80
2017-09-13T08:33:27.618Z,54.30
2017-09-13T08:35:55.070Z,79.80
2017-09-13T08:38:22.532Z,67.50
2017-09-13T08:40:50.027Z,88.80
2017-09-13T08:43:17.471Z,79.90
2017-09-13T08:45:44.924Z,72.70
2017-09-13T08:48:12.402Z,69.40
2017-09-13T08:50:40.246Z,98.20
2017-09-13T08:53:07.700Z,98.20
2017-09-13T08:55:35.166Z,98.20
2017-09-13T08:58:02.620Z,98.20
2017-09-13T09:00:30.076Z,98.20
2017-09-13T09:02:57.555Z,98.20
2017-09-13T09:05:25.403Z,98.20
2017-09-13T09:07:53.252Z,98.20
2017-09-13T09:10:20.716Z,98.20
2017-09-13T09:12:48.166Z,98.20
2017-09-13T09:15:15.620Z,98.20
2017-09-13T09:17:43.085Z,98.20
2017-09-13T09:20:10.539Z,98.20
2017-09-13T09:22:37.990Z,98.20
2017-09-13T09:25:05.635Z,98.20
2017-09-13T09:27:33.100Z,98.20
2017-09-13T09:30:00.567Z,98.20
2017-09-13T09:32:28.047Z,98.20
2017-09-13T09:34:55.499Z,98.20
2017-09-13T09:37:23.152Z,98.20
2017-09-13T09:39:51.287Z,98.20
2017-09-13T09:42:18.754Z,98.20
2017-09-13T09:44:46.198Z,98.20
2017-09-13T09:47:13.674Z,96.70
2017-09-13T09:49:41.519Z,98.20
2017-09-13T09:52:08.974Z,98.20
2017-09-13T09:54:36.430Z,98.20
2017-09-13T09:57:03.883Z,98.20
2017-09-13T09:59:31.339Z,98.20
2017-09-13T10:01:59.100Z,98.20
2017-09-13T10:04:26.551Z,98.20
2017-09-13T10:06:54.000Z,98.20
2017-09-13T10:09:21.491Z,98.20
2017-09-13T10:11:49.330Z,98.20
2017-09-13T10:14:16.791Z,98.20
2017-09-13T10:16:44.286Z,98.20
2017-09-13T10:19:11.734Z,98.20
2017-09-13T10:21:39.594Z,98.20
2017-09-13T10:24:07.638Z,98.20
2017-09-13T10:26:35.081Z,98.20
2017-09-13T10:29:02.530Z,98.20
2017-09-13T10:31:30.262Z,98.20
2017-09-13T10:33:57.714Z,98.20
2017-09-13T10:36:25.169Z,98.20
2017-09-13T10:38:52.639Z,98.20
2017-09-13T10:41:20.083Z,98.20
2017-09-13T10:43:47.538Z,98.20
2017-09-13T10:46:14.994Z,98.20
2017-09-13T10:48:42.454Z,98.20
2017-09-13T10:51:09.924Z,98.20
2017-09-13T10:53:37.370Z,98.20
2017-09-13T10:56:04.818Z,98.20
2017-09-13T10:58:32.307Z,98.20
2017-09-13T11:00:59.756Z,98.20
2017-09-13T11:03:27.218Z,98.20
2017-09-13T11:05:54.703Z,98.20
2017-09-13T11:08:22.551Z,98.20
2017-09-13T11:10:49.998Z,98.20
2017-09-13T11:13:17.483Z,98.20
2017-09-13T11:15:45.330Z,98.20
2017-09-13T11:18:12.783Z,98.20
2017-09-13T11:20:40.352Z,98.20
2017-09-13T11:23:08.239Z,98.20
2017-09-13T11:25:35.682Z,98.20
2017-09-13T11:28:03.579Z,98.20
2017-09-13T11:30:31.025Z,98.20
2017-09-13T11:32:58.491Z,98.20
2017-09-13T11:35:25.991Z,98.20
2017-09-13T11:37:53.438Z,98.20
2017-09-13T11:40:20.891Z,98.20
2017-09-13T11:42:48.403Z,98.20
2017-09-13T11:45:15.847Z,98.20
2017-09-13T11:47:43.295Z,98.20
2017-09-13T11:50:10.770Z,98.20
2017-09-13T11:52:38.241Z,98.20
2017-09-13T11:55:05.686Z,98.20
2017-09-13T11:57:33.156Z,98.20
2017-09-13T12:00:00.599Z,98.20
2017-09-13T12:02:28.286Z,98.20
2017-09-13T12:04:55.735Z,98.20
2017-09-13T12:07:23.189Z,98.20
2017-09-13T12:09:50.666Z,98.20
2017-09-13T12:12:18.115Z,98.20
2017-09-13T12:14:45.572Z,98.20
2017-09-13T12:17:13.034Z,98.20
2017-09-13T12:19:40.487Z,98.20
2017-09-13T12:22:07.938Z,98.20
2017-09-13T12:24:35.436Z,98.20
2017-09-13T12:27:02.896Z,98.20
2017-09-13T12:29:30.352Z,98.20
2017-09-13T12:31:57.853Z,98.20
2017-09-13T12:34:25.308Z,98.20
2017-09-13T12:36:52.775Z,98.20
2017-09-13T12:39:20.239Z,98.20
2017-09-13T12:41:48.087Z,98.20
2017-09-13T12:44:15.543Z,98.20
2017-09-13T12:46:43.048Z,98.20
2017-09-13T12:49:10.495Z,98.20
2017-09-13T12:51:37.948Z,98.20
2017-09-13T12:54:05.829Z,98.20
2017-09-13T12:56:33.266Z,98.20
2017-09-13T12:59:00.722Z,98.20
2017-09-13T13:01:28.215Z,98.20
2017-09-13T13:03:55.664Z,98.20
2017-09-13T13:06:23.124Z,98.20
2017-09-13T13:08:50.603Z,98.20
2017-09-13T13:11:18.054Z,98.20
2017-09-13T13:13:45.512Z,98.20
2017-09-13T13:16:13.298Z,98.20
2017-09-13T13:18:41.147Z,98.20
2017-09-13T13:21:08.594Z,98.20
2017-09-13T13:23:36.058Z,98.20
2017-09-13T13:26:03.516Z,98.20
2017-09-13T13:28:30.967Z,98.20
2017-09-13T13:30:58.724Z,98.20
2017-09-13T13:33:26.175Z,98.20
2017-09-13T13:35:53.632Z,98.20
2017-09-13T13:38:21.087Z,98.20
2017-09-13T13:40:48.538Z,98.20
2017-09-13T13:43:16.106Z,98.20
2017-09-13T13:45:43.562Z,98.20
2017-09-13T13:48:11.015Z,98.20
2017-09-13T13:50:38.666Z,98.20
2017-09-13T13:53:06.119Z,98.20
2017-09-13T13:55:33.579Z,98.20
2017-09-13T13:58:01.062Z,98.20
2017-09-13T14:00:28.912Z,98.20
2017-09-13T14:02:56.355Z,98.20
2017-09-13T14:05:23.819Z,98.20
2017-09-13T14:07:51.279Z,98.20
2017-09-13T14:10:18.730Z,98.20
2017-09-13T14:12:46.381Z,98.20
2017-09-13T14:15:13.834Z,98.20
2017-09-13T14:17:41.287Z,98.20
2017-09-13T14:20:09.047Z,98.20
2017-09-13T14:22:36.495Z,98.20
2017-09-13T14:25:03.960Z,98.20
2017-09-13T14:27:31.420Z,98.20
2017-09-13T14:29:58.871Z,98.20
2017-09-13T14:32:26.631Z,98.20
2017-09-13T14:34:54.087Z,98.20
2017-09-13T14:37:21.548Z,98.20
2017-09-13T14:39:49.039Z,98.20
2017-09-13T14:42:16.488Z,98.20
2017-09-13T14:44:44.367Z,98.20
2017-09-13T14:47:12.083Z,98.20
2017-09-13T14:49:39.540Z,98.20
2017-09-13T14:52:06.990Z,98.20
2017-09-13T14:54:34.714Z,98.20
2017-09-13T14:57:02.171Z,98.20
2017-09-13T14:59:29.624Z,98.20
2017-09-13T15:01:57.094Z,98.20
2017-09-13T15:04:24.547Z,98.20
2017-09-13T15:06:52.000Z,98.20
2017-09-13T15:09:19.646Z,98.20
2017-09-13T15:11:47.112Z,98.20
2017-09-13T15:14:14.555Z,98.20
2017-09-13T15:16:42.015Z,98.20
2017-09-13T15:19:09.499Z,98.20
2017-09-13T15:21:36.951Z,98.20
2017-09-13T15:24:04.405Z,98.20
2017-09-13T15:26:31.883Z,98.20
2017-09-13T15:28:59.339Z,98.20
2017-09-13T15:31:26.782Z,98.20
2017-09-13T15:33:54.279Z,98.20
2017-09-13T15:36:21.731Z,98.20
2017-09-13T15:38:49.183Z,98.20
2017-09-13T15:41:17.030Z,98.20
2017-09-13T15:43:44.667Z,98.20
2017-09-13T15:46:12.112Z,98.20
2017-09-13T15:48:39.830Z,98.20
2017-09-13T15:51:07.322Z,98.20
2017-09-13T15:53:34.781Z,98.20
2017-09-13T15:56:02.230Z,98.20
2017-09-13T15:58:29.906Z,98.20
2017-09-13T16:00:57.363Z,98.20
2017-09-13T16:03:24.810Z,98.20
2017-09-13T16:05:52.303Z,98.20
2017-09-13T16:08:20.147Z,98.20
2017-09-13T16:10:47.597Z,98.20
2017-09-13T16:13:15.074Z,98.20
2017-09-13T16:15:42.524Z,98.20
2017-09-13T16:18:10.379Z,98.20
2017-09-13T16:20:38.139Z,98.20
2017-09-13T16:23:05.590Z,98.20
2017-09-13T16:25:33.039Z,98.20
2017-09-13T16:28:00.494Z,98.20
2017-09-13T16:30:27.946Z,98.20
2017-09-13T16:32:55.395Z,98.20
2017-09-13T16:35:22.859Z,98.20
2017-09-13T16:37:50.307Z,98.20
2017-09-13T16:40:17.754Z,98.20
2017-09-13T16:42:45.225Z,98.20
2017-09-13T16:45:12.692Z,98.20
2017-09-13T16:47:40.455Z,98.20
2017-09-13T16:50:07.903Z,98.20
2017-09-13T16:52:35.364Z,98.20
2017-09-13T16:55:03.086Z,98.20
2017-09-13T16:57:30.546Z,98.20
2017-09-13T16:59:57.998Z,98.20
2017-09-13T17:02:25.478Z,98.20
2017-09-13T17:04:52.932Z,98.20
2017-09-13T17:07:20.391Z,98.20
2017-09-13T17:09:48.159Z,98.20
2017-09-13T17:12:15.623Z,98.20
2017-09-13T17:14:43.086Z,98.20
2017-09-13T17:17:10.564Z,98.20
2017-09-13T17:19:38.023Z,98.20
2017-09-13T17:22:05.478Z,98.20
2017-09-13T17:24:33.346Z,98.20
2017-09-13T17:27:00.799Z,98.20
2017-09-13T17:29:28.247Z,98.20
2017-09-13T17:31:56.124Z,98.20
2017-09-13T17:34:23.571Z,98.20
2017-09-13T17:36:51.023Z,98.20
2017-09-13T17:39:18.474Z,98.20
2017-09-13T17:41:46.323Z,98.20
2017-09-13T17:44:14.067Z,98.20
2017-09-13T17:46:41.526Z,98.20
2017-09-13T17:49:08.978Z,98.20
2017-09-13T17:51:36.446Z,98.20
2017-09-13T17:54:03.899Z,98.20
2017-09-13T17:56:31.346Z,98.20
2017-09-13T17:58:58.847Z,98.20
2017-09-13T18:01:26.324Z,98.20
2017-09-13T18:03:53.795Z,98.20
2017-09-13T18:06:21.550Z,98.20
2017-09-13T18:08:49.031Z,98.20
2017-09-13T18:11:16.482Z,98.20
2017-09-13T18:13:43.939Z,98.20
2017-09-13T18:16:11.431Z,98.20
2017-09-13T18:18:39.293Z,98.20
2017-09-13T18:21:06.747Z,98.20
2017-09-13T18:23:34.608Z,98.20
2017-09-13T18:26:02.066Z,98.20
2017-09-13T18:28:29.918Z,98.20
2017-09-13T18:30:57.813Z,98.20
2017-09-13T18:33:25.268Z,98.20
2017-09-13T18:35:53.393Z,98.20
2017-09-13T18:38:20.876Z,98.20
2017-09-13T18:40:48.743Z,98.20
2017-09-13T18:43:16.615Z,98.20
2017-09-13T18:45:44.120Z,98.20
2017-09-13T18:48:11.595Z,98.20
2017-09-13T18:50:39.044Z,98.20
2017-09-13T18:53:06.555Z,98.20
2017-09-13T18:55:34.003Z,98.20
2017-09-13T18:58:01.502Z,98.20
2017-09-13T19:00:28.975Z,98.20
2017-09-13T19:02:56.463Z,98.20
2017-09-13T19:05:23.956Z,98.20
2017-09-13T19:07:51.429Z,98.20
2017-09-13T19:10:18.900Z,98.20
2017-09-13T19:12:46.492Z,98.20
2017-09-13T19:15:13.950Z,98.20
2017-09-13T19:17:41.428Z,98.20
2017-09-13T19:20:08.971Z,98.20
2017-09-13T19:22:36.471Z,98.20
2017-09-13T19:25:03.932Z,98.20
2017-09-13T19:27:31.415Z,98.20
2017-09-13T19:29:59.264Z,98.20
2017-09-13T19:32:27.335Z,98.20
2017-09-13T19:34:55.374Z,98.20
2017-09-13T19:37:22.827Z,98.20
2017-09-13T19:39:50.304Z,98.20
2017-09-13T19:42:18.163Z,98.20
2017-09-13T19:44:45.659Z,98.20
2017-09-13T19:47:13.170Z,98.20
2017-09-13T19:49:40.664Z,98.20
2017-09-13T19:52:08.123Z,98.20
2017-09-13T19:54:35.574Z,98.20
2017-09-13T19:57:03.390Z,98.20
2017-09-13T19:59:30.854Z,98.20
2017-09-13T20:01:58.299Z,98.20
2017-09-13T20:04:25.769Z,98.20
2017-09-13T20:06:53.232Z,98.20
2017-09-13T20:09:20.682Z,98.20
2017-09-13T20:11:48.170Z,98.20
2017-09-13T20:14:15.627Z,98.20
2017-09-13T20:16:43.073Z,98.20
2017-09-13T20:19:10.938Z,98.20
2017-09-13T20:21:38.400Z,98.20
2017-09-13T20:24:05.842Z,98.20
2017-09-13T20:26:33.702Z,98.20
2017-09-13T20:29:01.553Z,98.20
2017-09-13T20:31:28.999Z,98.20
2017-09-13T20:33:56.461Z,98.20
2017-09-13T20:36:23.919Z,98.20
2017-09-13T20:38:51.383Z,98.20
2017-09-13T20:41:19.235Z,98.20
2017-09-13T20:43:46.678Z,98.20
2017-09-13T20:46:14.157Z,98.20
2017-09-13T20:48:41.618Z,98.20
2017-09-13T20:51:09.468Z,98.20
2017-09-13T20:53:37.448Z,98.20
2017-09-13T20:56:05.290Z,98.20
2017-09-13T20:58:32.744Z,98.20
2017-09-13T21:01:00.224Z,98.20
2017-09-13T21:03:28.075Z,98.20
2017-09-13T21:05:55.532Z,98.20
2017-09-13T21:08:23.015Z,98.20
2017-09-13T21:10:50.478Z,98.20
2017-09-13T21:13:17.928Z,98.20
2017-09-13T21:15:45.409Z,98.20
2017-09-13T21:18:12.882Z,98.20
2017-09-13T21:20:45.121Z,98.20
2017-09-13T21:23:12.569Z,98.20
2017-09-13T21:25:40.037Z,98.20
2017-09-13T21:28:07.555Z,98.20
2017-09-13T21:30:35.399Z,98.20
2017-09-13T21:33:02.855Z,98.20
2017-09-13T21:35:30.919Z,98.20
2017-09-13T21:37:58.375Z,98.20
2017-09-13T21:40:25.833Z,98.20
2017-09-13T21:42:53.738Z,98.20
2017-09-13T21:45:21.195Z,98.20
2017-09-13T21:47:48.651Z,98.20
2017-09-13T21:50:16.139Z,98.20
2017-09-13T21:52:43.595Z,98.20
2017-09-13T21:55:11.055Z,98.20
2017-09-13T21:57:38.550Z,98.20
2017-09-13T22:00:06.406Z,98.20
2017-09-13T22:02:33.854Z,98.20
2017-09-13T22:05:01.314Z,98.20
2017-09-13T22:07:28.768Z,98.20
2017-09-13T22:09:56.246Z,98.20
2017-09-13T22:12:23.695Z,98.20
2017-09-13T22:14:51.551Z,98.20
2017-09-13T22:17:19.406Z,98.20
2017-09-13T22:19:46.864Z,98.20
2017-09-13T22:22:14.611Z,98.20
2017-09-13T22:24:42.088Z,98.20
2017-09-13T22:27:09.936Z,98.20
2017-09-13T22:29:37.442Z,98.20
2017-09-13T22:32:04.903Z,98.20
2017-09-13T22:34:32.376Z,98.20
2017-09-13T22:36:59.847Z,98.20
2017-09-13T22:39:27.306Z,98.20
2017-09-13T22:41:54.762Z,98.20
2017-09-13T22:44:22.428Z,98.20
2017-09-13T22:46:49.895Z,98.20
2017-09-13T22:49:18.214Z,98.20
2017-09-13T22:51:45.954Z,98.20
2017-09-13T22:54:13.790Z,98.20
2017-09-13T22:56:41.243Z,98.20
2017-09-13T22:59:08.730Z,98.20
2017-09-13T23:01:36.182Z,98.20
2017-09-13T23:04:03.643Z,98.20
2017-09-13T23:06:31.103Z,98.20
2017-09-13T23:08:58.600Z,98.20
2017-09-13T23:11:26.055Z,98.20
2017-09-13T23:13:53.530Z,98.20
2017-09-13T23:16:20.994Z,98.20
2017-09-13T23:18:49.151Z,98.20
2017-09-13T23:21:16.606Z,98.20
2017-09-13T23:23:44.058Z,98.20
2017-09-13T23:26:11.514Z,98.20
2017-09-13T23:28:38.971Z,98.20
2017-09-13T23:31:06.539Z,98.20
2017-09-13T23:33:33.995Z,98.20
2017-09-13T23:36:01.447Z,98.20
2017-09-13T23:38:29.415Z,98.20
2017-09-13T23:40:56.877Z,98.20
2017-09-13T23:43:24.321Z,98.20
2017-09-13T23:45:51.831Z,98.20
2017-09-13T23:48:19.294Z,98.20
2017-09-13T23:50:46.746Z,98.20
2017-09-13T23:53:14.230Z,98.20
2017-09-13T23:55:41.680Z,98.20
2017-09-13T23:58:09.132Z,98.20
